YBIU weather

Ballidu Airport
Western Australia, Australia

Public forecast

Using degrees Celsius for public forecast. Weather courtesy of forecast.io.

METAR (pilot weather report)

Closest report is RAAF Base Pearce, 75.5 nm (139.9 km) SSW. Retrieved 2019/04/26 09:30 UTC (0 seconds ago):

YPEA 260930Z AUTO 09010KT 9999 // NCD 26/03 Q1022

TAF (pilot weather forecast)

Closest forecast is RAAF Base Pearce, 75.5 nm (139.9 km) SSW. Retrieved 2019/04/26 06:00 UTC (3 hours ago):

TAF YPEA 260518Z 2606/2624 06012KT CAVOK FM261000 09007KT CAVOK FM261500 06012G22KT CAVOK